Time;durP1;ratioP1;P1;durP2;ratioP2;P2;SDS_P1;SDS_P2;PMS_P1;PMS_P2;Temp;Humidity;BMP_temperature;BMP_pressure;BME280_temperature;BME280_humidity;BME280_pressure;Samples;Min_cycle;Max_cycle;Signal;HPM_P1;HPM_P2
2023/11/28 00:00:12;;;;;;;;;0.00;0.00;;;;;10.16;100.00;99745.44;6331723;22;67820;-93
2023/11/28 00:02:38;;;;;;;;;0.00;0.00;;;;;10.12;100.00;99729.13;6335853;22;45371;-90
2023/11/28 00:05:04;;;;;;;;;0.00;0.00;;;;;10.24;100.00;99739.00;6335886;22;47102;-90
2023/11/28 00:07:32;;;;;;;;;0.00;0.00;;;;;10.22;100.00;99745.19;6336457;22;45387;-91
2023/11/28 00:09:58;;;;;;;;;0.00;0.00;;;;;10.03;100.00;99730.38;6337711;22;45286;-87
2023/11/28 00:12:25;;;;;;;;;0.00;0.00;;;;;10.12;100.00;99746.50;6336269;22;45244;-91
2023/11/28 00:15:03;;;;;;;;;0.00;0.00;;;;;10.15;100.00;99751.56;6335985;22;45474;-92
2023/11/28 00:17:29;;;;;;;;;0.00;0.00;;;;;10.04;100.00;99747.66;6335913;22;45417;-88
2023/11/28 00:19:54;;;;;;;;;0.00;0.00;;;;;9.97;100.00;99745.38;6361932;22;45350;-90
2023/11/28 00:22:19;;;;;;;;;0.00;0.00;;;;;10.15;100.00;99752.41;6335917;22;45332;-90
2023/11/28 00:24:45;;;;;;;;;0.00;0.00;;;;;10.16;100.00;99759.31;6335358;22;47868;-90
2023/11/28 00:27:10;;;;;;;;;0.00;0.00;;;;;10.10;100.00;99756.13;6335989;22;45214;-90
2023/11/28 00:29:36;;;;;;;;;0.00;0.00;;;;;10.13;100.00;99766.41;6336028;22;45165;-91
2023/11/28 00:32:04;;;;;;;;;0.00;0.00;;;;;10.14;100.00;99766.34;6309889;22;45250;-91
2023/11/28 00:34:32;;;;;;;;;0.00;0.00;;;;;10.08;100.00;99754.44;6338142;22;45714;-89
2023/11/28 00:36:58;;;;;;;;;0.00;0.00;;;;;10.01;100.00;99766.00;6311603;22;45321;-90
2023/11/28 00:39:23;;;;;;;;;0.00;0.00;;;;;10.02;100.00;99766.84;6337907;22;45375;-90
2023/11/28 00:41:49;;;;;;;;;0.00;0.00;;;;;10.00;100.00;99769.50;6311166;22;45506;-90
2023/11/28 00:44:14;;;;;;;;;0.00;0.00;;;;;10.05;100.00;99761.53;6337178;22;45424;-90
2023/11/28 00:46:40;;;;;;;;;0.00;0.00;;;;;10.11;100.00;99778.63;6338284;22;45323;-89
2023/11/28 00:49:12;;;;;;;;;0.00;0.00;;;;;10.01;100.00;99768.59;6311207;22;45274;-90
2023/11/28 00:51:41;;;;;;;;;0.00;0.00;;;;;10.04;100.00;99770.22;6338790;22;45370;-90
2023/11/28 00:54:06;;;;;;;;;0.00;0.00;;;;;10.03;100.00;99774.59;6310830;22;47253;-90
2023/11/28 00:56:32;;;;;;;;;0.00;0.00;;;;;9.92;100.00;99762.94;6310818;22;45506;-91
2023/11/28 00:58:59;;;;;;;;;0.00;0.00;;;;;9.96;100.00;99767.13;6337872;22;45334;-90
2023/11/28 01:01:27;;;;;;;;;0.00;0.00;;;;;9.97;100.00;99779.19;6338384;22;45374;-91
2023/11/28 01:03:53;;;;;;;;;0.00;0.00;;;;;9.85;100.00;99770.16;6338576;22;45486;-89
2023/11/28 01:06:18;;;;;;;;;2.00;0.00;;;;;10.00;100.00;99790.31;6337400;22;45382;-89
2023/11/28 01:08:46;;;;;;;;;0.00;0.00;;;;;9.96;100.00;99793.94;6337884;22;45629;-90
2023/11/28 01:11:14;;;;;;;;;0.00;0.00;;;;;9.94;100.00;99792.34;6337462;22;45387;-91
2023/11/28 01:13:51;;;;;;;;;0.00;0.00;;;;;9.97;100.00;99792.19;6338366;22;46586;-91
2023/11/28 01:16:16;;;;;;;;;0.00;0.00;;;;;9.94;100.00;99797.53;6311775;22;45191;-88
2023/11/28 01:18:41;;;;;;;;;0.00;0.00;;;;;9.97;100.00;99797.38;6340976;22;60417;-88
2023/11/28 01:21:07;;;;;;;;;0.00;0.00;;;;;9.96;100.00;99804.34;6344997;22;56511;-90
2023/11/28 01:23:32;;;;;;;;;0.00;0.00;;;;;9.99;100.00;99817.22;6344765;22;48273;-89
2023/11/28 01:25:58;;;;;;;;;0.00;0.00;;;;;9.94;100.00;99813.13;6318523;22;45419;-89
2023/11/28 01:28:23;;;;;;;;;0.00;0.00;;;;;9.93;100.00;99803.63;6318632;22;45291;-89
2023/11/28 01:30:48;;;;;;;;;0.00;0.00;;;;;10.00;100.00;99815.47;6317032;22;45415;-89
2023/11/28 01:33:14;;;;;;;;;0.00;0.00;;;;;9.95;100.00;99809.59;6311855;22;53306;-89
2023/11/28 01:35:39;;;;;;;;;0.00;0.00;;;;;10.63;100.00;99825.84;6310414;22;51825;-89
2023/11/28 01:38:05;;;;;;;;;0.00;0.00;;;;;10.68;100.00;99825.63;6310914;22;45390;-90
2023/11/28 01:40:30;;;;;;;;;0.00;0.00;;;;;10.63;100.00;99818.88;6310972;22;45453;-90
2023/11/28 01:42:56;;;;;;;;;0.00;0.00;;;;;10.59;100.00;99821.69;6337035;22;47325;-90
2023/11/28 01:45:22;;;;;;;;;0.00;0.00;;;;;10.58;100.00;99828.63;6310607;22;45686;-90
2023/11/28 01:47:50;;;;;;;;;0.00;0.00;;;;;10.57;100.00;99832.16;6336841;22;45162;-89
2023/11/28 01:50:15;;;;;;;;;0.00;0.00;;;;;10.50;100.00;99840.28;6310813;22;45518;-89
2023/11/28 01:52:41;;;;;;;;;0.00;0.00;;;;;10.52;100.00;99834.09;6310418;22;46845;-88
2023/11/28 01:55:06;;;;;;;;;0.00;0.00;;;;;10.32;100.00;99842.75;6338408;22;45196;-90
2023/11/28 01:57:32;;;;;;;;;0.00;0.00;;;;;10.30;100.00;99854.94;6310328;22;45282;-88
2023/11/28 01:59:58;;;;;;;;;0.00;0.00;;;;;10.20;100.00;99831.09;6336367;22;45355;-89
2023/11/28 02:02:24;;;;;;;;;0.00;0.00;;;;;10.26;100.00;99850.78;6310671;22;48295;-90
2023/11/28 02:04:51;;;;;;;;;0.00;0.00;;;;;10.25;100.00;99830.88;6310565;22;45320;-90
2023/11/28 02:07:16;;;;;;;;;0.00;0.00;;;;;10.23;100.00;99833.56;6337110;22;45210;-90
2023/11/28 02:09:41;;;;;;;;;0.00;0.00;;;;;10.33;100.00;99865.25;6310804;22;45466;-90
2023/11/28 02:12:07;;;;;;;;;0.00;0.00;;;;;10.30;100.00;99854.94;6309998;22;58709;-90
2023/11/28 02:14:33;;;;;;;;;0.00;0.00;;;;;10.31;100.00;99859.28;6310161;22;45218;-90
2023/11/28 02:16:58;;;;;;;;;0.00;0.00;;;;;10.29;100.00;99861.06;6310870;22;45288;-90
2023/11/28 02:19:23;;;;;;;;;0.00;0.00;;;;;10.26;100.00;99859.44;6310581;22;45194;-90
2023/11/28 02:21:52;;;;;;;;;0.00;0.00;;;;;10.24;100.00;99861.25;6336651;22;45455;-89
2023/11/28 02:24:18;;;;;;;;;0.00;0.00;;;;;10.24;100.00;99857.81;6336389;22;45619;-90
2023/11/28 02:26:43;;;;;;;;;0.00;0.00;;;;;10.24;100.00;99861.25;6310592;22;45277;-89
2023/11/28 02:29:08;;;;;;;;;0.00;0.00;;;;;10.26;100.00;99864.63;6310307;22;45372;-90
2023/11/28 02:31:34;;;;;;;;;0.00;0.00;;;;;10.33;100.00;99872.22;6336604;22;45331;-89
2023/11/28 02:34:05;;;;;;;;;0.00;0.00;;;;;10.25;100.00;99873.34;6310475;22;45676;-92
2023/11/28 02:36:30;;;;;;;;;0.00;0.00;;;;;10.27;100.00;99862.91;6336827;22;45189;-90
2023/11/28 02:38:56;;;;;;;;;0.00;0.00;;;;;10.22;100.00;99867.44;6310441;22;45189;-88
2023/11/28 02:41:21;;;;;;;;;0.00;0.00;;;;;10.29;100.00;99876.69;6309225;22;62088;-88
2023/11/28 02:43:46;;;;;;;;;0.00;0.00;;;;;10.25;100.00;99875.09;6309681;22;45900;-88
2023/11/28 02:46:12;;;;;;;;;0.00;0.00;;;;;10.26;100.00;99874.19;6336771;22;45355;-90
2023/11/28 02:48:41;;;;;;;;;0.50;0.00;;;;;10.24;100.00;99865.63;6338380;22;45252;-90
2023/11/28 02:51:10;;;;;;;;;0.00;0.00;;;;;10.34;100.00;99886.91;6335768;22;47224;-88
2023/11/28 02:53:35;;;;;;;;;0.00;0.00;;;;;10.28;100.00;99891.41;6337029;22;45390;-87
2023/11/28 02:56:00;;;;;;;;;0.00;0.00;;;;;10.27;100.00;99894.94;6308689;22;57318;-88
2023/11/28 02:58:26;;;;;;;;;0.00;0.00;;;;;10.28;100.00;99888.81;6308403;22;53250;-87
2023/11/28 03:00:51;;;;;;;;;0.00;0.00;;;;;10.23;100.00;99888.19;6308974;22;47957;-88
2023/11/28 03:03:16;;;;;;;;;0.00;0.00;;;;;10.18;100.00;99903.13;6309211;22;50661;-88
2023/11/28 03:05:42;;;;;;;;;0.00;0.00;;;;;10.12;100.00;99903.34;6309622;22;45415;-87
2023/11/28 03:08:07;;;;;;;;;0.00;0.00;;;;;10.22;100.00;99914.25;6337512;22;45291;-87
2023/11/28 03:10:33;;;;;;;;;0.00;0.00;;;;;10.25;100.00;99916.72;6336316;22;46208;-88
2023/11/28 03:12:58;;;;;;;;;0.00;0.00;;;;;10.25;100.00;99914.97;6309298;22;45422;-88
2023/11/28 03:15:23;;;;;;;;;0.00;0.00;;;;;10.27;100.00;99907.94;6308674;22;58697;-88
2023/11/28 03:17:49;;;;;;;;;0.00;0.00;;;;;10.22;100.00;99909.88;6309390;22;45195;-89
2023/11/28 03:20:14;;;;;;;;;0.00;0.00;;;;;10.24;100.00;99909.81;6309727;22;47023;-89
2023/11/28 03:22:40;;;;;;;;;0.00;0.00;;;;;10.24;100.00;99915.03;6310011;22;45454;-90
2023/11/28 03:25:07;;;;;;;;;0.00;0.00;;;;;10.21;100.00;99920.34;6310034;22;45510;-90
2023/11/28 03:27:36;;;;;;;;;0.00;0.00;;;;;10.22;100.00;99925.50;6336195;22;45441;-89
2023/11/28 03:30:01;;;;;;;;;0.00;0.00;;;;;10.11;100.00;99934.66;6336365;22;46377;-91
2023/11/28 03:32:27;;;;;;;;;0.00;0.00;;;;;9.95;100.00;99930.03;6336083;22;45760;-90
2023/11/28 03:34:52;;;;;;;;;0.00;0.00;;;;;9.88;100.00;99928.59;6310280;22;45633;-90
2023/11/28 03:37:18;;;;;;;;;0.00;0.00;;;;;9.92;100.00;99939.69;6309771;22;50099;-89
2023/11/28 03:39:43;;;;;;;;;0.00;0.00;;;;;10.03;100.00;99930.59;6335848;22;49528;-90
2023/11/28 03:42:08;;;;;;;;;0.00;0.00;;;;;9.90;100.00;99942.38;6312709;22;57682;-90
2023/11/28 03:44:34;;;;;;;;;0.00;0.00;;;;;10.00;100.00;99951.50;6317829;22;60220;-90
2023/11/28 03:46:59;;;;;;;;;0.00;0.00;;;;;9.92;100.00;99955.28;6344781;22;45276;-90
2023/11/28 03:49:27;;;;;;;;;0.00;0.00;;;;;9.81;100.00;99953.13;6344983;22;45350;-90
2023/11/28 03:51:52;;;;;;;;;0.00;0.00;;;;;9.71;100.00;99960.41;6345269;22;45205;-89
2023/11/28 03:54:27;;;;;;;;;0.00;0.00;;;;;9.78;100.00;99955.84;6316100;22;49034;-92
2023/11/28 03:56:52;;;;;;;;;0.00;0.00;;;;;9.72;100.00;99969.06;6336150;22;45206;-90
2023/11/28 03:59:30;;;;;;;;;;;;;;;;;;;;;
2023/11/28 04:02:02;;;;;;;;;0.00;0.00;;;;;9.71;100.00;99968.19;6330661;22;72939;-92
2023/11/28 04:04:53;;;;;;;;;0.00;0.00;;;;;9.68;100.00;99966.59;6337746;22;45390;-92
2023/11/28 04:07:18;;;;;;;;;0.00;0.00;;;;;9.65;100.00;99973.63;6336344;22;45482;-91
2023/11/28 04:09:46;;;;;;;;;0.00;0.00;;;;;9.65;100.00;99978.84;6309597;22;45580;-90
2023/11/28 04:12:11;;;;;;;;;0.00;0.00;;;;;9.68;100.00;99983.94;6336725;22;45458;-89
2023/11/28 04:14:37;;;;;;;;;0.00;0.00;;;;;9.73;100.00;99981.16;6311140;22;45401;-89
2023/11/28 04:17:02;;;;;;;;;0.00;0.00;;;;;9.78;100.00;99993.06;6338842;22;45184;-90
2023/11/28 04:19:28;;;;;;;;;0.00;0.00;;;;;9.73;100.00;99988.94;6337181;22;47072;-89
2023/11/28 04:21:53;;;;;;;;;0.00;0.00;;;;;9.71;100.00;99993.34;6337221;22;45487;-89
2023/11/28 04:24:19;;;;;;;;;0.00;0.00;;;;;9.79;100.00;100007.78;6336516;22;49347;-90
2023/11/28 04:26:51;;;;;;;;;0.00;0.00;;;;;9.75;100.00;100008.78;6311305;22;45467;-90
2023/11/28 04:29:17;;;;;;;;;0.00;0.00;;;;;9.68;100.00;100007.31;6337526;22;45384;-90
2023/11/28 04:31:44;;;;;;;;;0.00;0.00;;;;;9.67;100.00;100009.06;6311157;22;45242;-90
2023/11/28 04:34:10;;;;;;;;;0.00;0.00;;;;;9.73;100.00;100025.31;6338783;22;45084;-90
2023/11/28 04:36:35;;;;;;;;;0.00;0.00;;;;;9.74;100.00;100033.06;6337572;22;45247;-90
2023/11/28 04:39:01;;;;;;;;;0.00;0.00;;;;;9.74;100.00;100040.88;6310536;22;48300;-90
2023/11/28 04:41:27;;;;;;;;;0.00;0.00;;;;;9.75;100.00;100036.50;6310867;22;45238;-89
2023/11/28 04:43:52;;;;;;;;;0.00;0.00;;;;;9.66;100.00;100028.16;6311249;22;45443;-90
2023/11/28 04:46:18;;;;;;;;;0.00;0.00;;;;;9.68;100.00;100031.53;6337211;22;45261;-89
2023/11/28 04:48:43;;;;;;;;;0.00;0.00;;;;;9.66;100.00;100024.72;6338760;22;45378;-89
2023/11/28 04:51:08;;;;;;;;;0.00;0.00;;;;;9.63;100.00;100043.84;6337083;22;45308;-90
2023/11/28 04:53:34;;;;;;;;;0.00;0.00;;;;;9.66;100.00;100053.31;6338889;22;45417;-90
2023/11/28 04:55:59;;;;;;;;;0.00;0.00;;;;;9.57;100.00;100035.44;6338678;22;45431;-89
2023/11/28 04:58:25;;;;;;;;;0.00;0.00;;;;;9.38;100.00;100058.59;6310585;22;47231;-89
2023/11/28 05:00:50;;;;;;;;;0.00;0.00;;;;;9.34;100.00;100063.06;6337312;22;45330;-89
2023/11/28 05:03:16;;;;;;;;;0.00;0.00;;;;;9.27;100.00;100059.84;6311458;22;45664;-90
2023/11/28 05:05:42;;;;;;;;;0.00;0.00;;;;;9.30;100.00;100070.13;6310844;22;45262;-90
2023/11/28 05:08:07;;;;;;;;;0.00;0.00;;;;;9.41;100.00;100077.53;6336830;22;46540;-90
2023/11/28 05:10:35;;;;;;;;;0.00;0.00;;;;;9.32;100.00;100079.59;6311019;22;45250;-90
2023/11/28 05:13:02;;;;;;;;;0.00;0.00;;;;;9.30;100.00;100087.44;6337570;22;45296;-90
2023/11/28 05:15:28;;;;;;;;;0.00;0.00;;;;;9.39;100.00;100094.09;6337377;22;45418;-90
2023/11/28 05:17:53;;;;;;;;;0.00;0.00;;;;;9.36;100.00;100084.66;6310779;22;47240;-90
2023/11/28 05:20:19;;;;;;;;;0.00;0.00;;;;;9.40;100.00;100095.78;6310902;22;45297;-89
2023/11/28 05:22:45;;;;;;;;;0.00;0.00;;;;;9.41;100.00;100094.88;6336798;22;45337;-90
2023/11/28 05:25:10;;;;;;;;;0.00;0.00;;;;;9.39;100.00;100094.09;6310396;22;45551;-89
2023/11/28 05:27:35;;;;;;;;;0.00;0.00;;;;;9.48;100.00;100109.34;6310604;22;48376;-89
2023/11/28 05:30:01;;;;;;;;;0.00;0.00;;;;;9.39;100.00;100107.06;6336723;22;47486;-90
2023/11/28 05:32:27;;;;;;;;;0.00;0.00;;;;;9.40;100.00;100121.78;6338749;22;45425;-90
2023/11/28 05:34:52;;;;;;;;;0.00;0.00;;;;;9.33;100.00;100120.28;6338679;22;45133;-89
2023/11/28 05:37:18;;;;;;;;;0.00;0.00;;;;;9.41;100.00;100141.63;6338131;22;45501;-90
2023/11/28 05:39:43;;;;;;;;;0.00;0.00;;;;;9.41;100.00;100136.44;6310634;22;45217;-89
2023/11/28 05:42:08;;;;;;;;;0.00;0.00;;;;;9.38;100.00;100154.72;6310889;22;45677;-89
2023/11/28 05:44:34;;;;;;;;;0.00;0.00;;;;;9.32;100.00;100149.72;6310682;22;45166;-90
2023/11/28 05:46:59;;;;;;;;;0.00;0.00;;;;;9.28;100.00;100160.22;6310625;22;46896;-90
2023/11/28 05:49:24;;;;;;;;;0.00;0.00;;;;;9.28;100.00;100165.41;6338231;22;45194;-90
2023/11/28 05:51:52;;;;;;;;;0.00;0.00;;;;;9.30;100.00;100174.03;6338456;22;45212;-90
2023/11/28 05:54:18;;;;;;;;;0.00;0.00;;;;;9.37;100.00;100181.59;6337956;22;45331;-90
2023/11/28 05:56:43;;;;;;;;;0.00;0.00;;;;;9.21;100.00;100178.66;6336876;22;45277;-89
2023/11/28 05:59:08;;;;;;;;;0.00;0.00;;;;;9.12;100.00;100187.59;6336893;22;48132;-90
2023/11/28 06:01:34;;;;;;;;;0.00;0.00;;;;;9.08;100.00;100181.66;6337146;22;45407;-90
2023/11/28 06:04:02;;;;;;;;;0.00;0.00;;;;;8.87;100.00;100198.72;6317246;22;45563;-90
2023/11/28 06:06:27;;;;;;;;;0.00;0.00;;;;;8.81;100.00;100195.47;6345451;22;45467;-89
2023/11/28 06:08:53;;;;;;;;;0.00;0.00;;;;;8.77;100.00;100209.44;6344702;22;45305;-89
2023/11/28 06:11:19;;;;;;;;;0.00;0.00;;;;;8.66;100.00;100207.16;6345257;22;45320;-89
2023/11/28 06:13:44;;;;;;;;;0.00;0.00;;;;;8.53;100.00;100204.91;6344023;22;45414;-90
2023/11/28 06:16:09;;;;;;;;;0.00;0.00;;;;;8.46;100.00;100216.38;6342071;22;49544;-89
2023/11/28 06:18:37;;;;;;;;;1.50;0.00;;;;;8.39;100.00;100227.78;6339672;22;45178;-87
2023/11/28 06:21:07;;;;;;;;;0.00;0.00;;;;;8.42;100.00;100232.91;6336749;22;45292;-89
2023/11/28 06:23:32;;;;;;;;;0.00;0.00;;;;;8.28;100.00;100233.28;6338341;22;45138;-88
2023/11/28 06:25:57;;;;;;;;;0.00;0.00;;;;;8.26;100.00;100249.75;6310452;22;55644;-88
2023/11/28 06:28:23;;;;;;;;;0.00;0.00;;;;;8.16;100.00;100240.53;6338242;22;45250;-88
2023/11/28 06:30:48;;;;;;;;;0.00;0.00;;;;;8.12;100.00;100245.78;6337080;22;45282;-89
2023/11/28 06:33:13;;;;;;;;;0.00;0.00;;;;;8.14;100.00;100248.34;6336113;22;50445;-88
2023/11/28 06:35:39;;;;;;;;;0.00;0.00;;;;;8.19;100.00;100256.00;6308726;22;56072;-88
2023/11/28 06:38:04;;;;;;;;;0.00;0.00;;;;;8.18;100.00;100257.75;6336263;22;59282;-87
2023/11/28 06:44:33;;;;;;;;;;;;;;;;;;;;;
2023/11/28 06:47:00;;;;;;;;;0.00;0.00;;;;;8.25;100.00;100272.25;6336806;22;74427;-87
2023/11/28 06:49:57;;;;;;;;;0.00;0.00;;;;;8.09;100.00;100269.19;6335674;22;45619;-88
2023/11/28 06:52:22;;;;;;;;;0.00;0.00;;;;;8.03;100.00;100271.97;6335220;22;45372;-87
2023/11/28 06:55:21;;;;;;;;;;;;;;;;;;;;;
2023/11/28 06:57:50;;;;;;;;;0.00;0.00;;;;;7.91;100.00;100280.91;6335832;22;75690;-91
2023/11/28 07:06:49;;;;;;;;;0.00;0.00;;;;;7.85;100.00;100288.81;6193762;22;45597;-85
2023/11/28 07:09:15;;;;;;;;;0.00;0.00;;;;;7.95;100.00;100307.59;6208600;22;74549;-85
2023/11/28 07:11:41;;;;;;;;;0.00;0.00;;;;;7.92;100.00;100299.88;6210175;22;45334;-88
2023/11/28 07:14:06;;;;;;;;;0.00;0.00;;;;;7.98;100.00;100314.44;6184803;22;45562;-85
2023/11/28 07:16:32;;;;;;;;;0.00;0.00;;;;;8.05;100.00;100318.59;6210316;22;45413;-88
2023/11/28 07:18:58;;;;;;;;;0.00;0.00;;;;;8.02;100.00;100326.41;6209950;22;46024;-86
2023/11/28 07:21:24;;;;;;;;;0.00;0.00;;;;;8.10;100.00;100332.28;6185176;22;45410;-87
2023/11/28 07:23:49;;;;;;;;;0.00;0.00;;;;;8.08;100.00;100334.91;6184770;22;45505;-88
2023/11/28 07:26:14;;;;;;;;;0.00;0.00;;;;;8.04;100.00;100327.22;6210353;22;48874;-89
2023/11/28 07:28:40;;;;;;;;;0.00;0.00;;;;;8.03;100.00;100336.75;6210330;22;45388;-92
2023/11/28 07:31:06;;;;;;;;;0.00;0.00;;;;;8.10;100.00;100342.66;6184941;22;45386;-89
2023/11/28 07:33:43;;;;;;;;;0.00;0.00;;;;;8.23;100.00;100356.16;6185129;22;45278;-88
2023/11/28 07:36:16;;;;;;;;;0.00;0.00;;;;;8.16;100.00;100350.28;6186843;22;45339;-88
2023/11/28 07:38:44;;;;;;;;;0.00;0.00;;;;;8.16;100.00;100358.03;6185194;22;46843;-87
2023/11/28 07:41:14;;;;;;;;;0.00;0.00;;;;;8.16;100.00;100360.63;6209665;22;45432;-86
2023/11/28 07:43:39;;;;;;;;;0.00;0.00;;;;;8.19;100.00;100365.75;6296509;22;45325;-87
2023/11/28 07:46:05;;;;;;;;;0.00;0.00;;;;;8.31;100.00;100374.97;6332005;22;45312;-86
2023/11/28 07:48:30;;;;;;;;;0.00;0.00;;;;;8.26;100.00;100379.41;6337064;22;46921;-87
2023/11/28 07:50:56;;;;;;;;;0.00;0.00;;;;;8.29;100.00;100376.75;6334988;22;67684;-83
2023/11/28 07:53:21;;;;;;;;;0.00;0.00;;;;;8.30;100.00;100386.22;6336995;22;60661;-87
2023/11/28 07:55:47;;;;;;;;;0.00;0.00;;;;;8.30;100.00;100384.50;6335539;22;45252;-87
2023/11/28 07:58:13;;;;;;;;;0.00;0.00;;;;;8.36;100.00;100391.25;6307880;22;73724;-86
2023/11/28 08:00:38;;;;;;;;;0.00;0.00;;;;;8.31;100.00;100396.53;6336460;22;45345;-87
2023/11/28 08:03:04;;;;;;;;;0.00;0.00;;;;;8.34;100.00;100395.63;6336296;22;45368;-85
2023/11/28 08:05:35;;;;;;;;;0.00;0.00;;;;;8.29;100.00;100407.84;6336049;22;45229;-89
2023/11/28 08:08:05;;;;;;;;;1.00;1.00;;;;;8.27;100.00;100407.03;6330552;22;46391;-90
2023/11/28 08:10:51;;;;;;;;;0.00;0.00;;;;;8.24;100.00;100407.97;6335520;22;45649;-89
2023/11/28 08:13:33;;;;;;;;;0.00;0.00;;;;;8.36;100.00;100440.53;6311168;22;45302;-90
2023/11/28 08:16:12;;;;;;;;;0.00;0.00;;;;;8.35;100.00;100423.25;6337496;22;45379;-89
2023/11/28 08:18:37;;;;;;;;;0.00;0.00;;;;;8.32;100.00;100434.56;6340959;22;46416;-89
2023/11/28 08:21:18;;;;;;;;;0.00;0.00;;;;;8.36;100.00;100437.06;6345873;22;45212;-89
2023/11/28 08:23:49;;;;;;;;;0.00;0.00;;;;;8.48;100.00;100452.38;6345211;22;45324;-90
2023/11/28 08:26:19;;;;;;;;;0.00;0.00;;;;;8.34;100.00;100450.09;6347657;22;45187;-89
2023/11/28 08:28:47;;;;;;;;;0.00;0.00;;;;;8.30;100.00;100454.50;6343810;22;47142;-89
2023/11/28 08:31:22;;;;;;;;;0.75;0.75;;;;;8.41;100.00;100469.78;6336531;22;45256;-89
2023/11/28 08:33:53;;;;;;;;;0.00;0.00;;;;;8.36;100.00;100466.47;6337053;22;45232;-88
2023/11/28 08:36:31;;;;;;;;;0.00;0.00;;;;;8.39;100.00;100468.13;6311498;22;45555;-89
2023/11/28 08:39:02;;;;;;;;;0.00;0.00;;;;;8.42;100.00;100471.53;6312594;22;47083;-89
2023/11/28 08:41:35;;;;;;;;;0.00;0.00;;;;;8.37;100.00;100480.28;6337603;22;45399;-89
2023/11/28 08:44:05;;;;;;;;;0.00;0.00;;;;;8.28;100.00;100479.63;6336953;22;45201;-89
2023/11/28 08:46:35;;;;;;;;;0.00;0.00;;;;;8.30;100.00;100495.13;6335551;22;45298;-89
2023/11/28 08:49:01;;;;;;;;;0.00;0.00;;;;;8.29;100.00;100493.44;6336641;22;45712;-89
2023/11/28 08:51:32;;;;;;;;;0.00;0.00;;;;;8.37;100.00;100491.50;6337928;22;45241;-90
2023/11/28 08:54:00;;;;;;;;;0.00;0.00;;;;;8.57;100.00;100514.41;6337042;22;45291;-89
2023/11/28 09:00:40;;;;;;;;;0.00;0.00;;;;;8.72;100.00;100503.66;6149924;23;46369;-88
2023/11/28 09:07:02;;;;;;;;;;;;;;;;;;;;;
2023/11/28 09:10:18;;;;;;;;;;;;;;;;;;;;;
2023/11/28 09:13:20;;;;;;;;;0.00;0.00;;;;;8.94;100.00;100549.84;6148916;23;45984;-90
2023/11/28 09:16:08;;;;;;;;;0.50;0.50;;;;;8.92;100.00;100554.22;6151701;23;45392;-89
2023/11/28 09:18:51;;;;;;;;;0.00;0.00;;;;;8.88;100.00;100544.81;6125778;23;45905;-89
2023/11/28 09:21:30;;;;;;;;;0.00;0.00;;;;;8.91;100.00;100548.19;6150721;23;45422;-89
2023/11/28 09:24:01;;;;;;;;;0.00;0.00;;;;;8.96;100.00;100561.03;6125223;23;47347;-89
2023/11/28 09:29:58;;;;;;;;;;;;;;;;;;;;;
2023/11/28 09:33:03;;;;;;;;;0.00;0.00;;;;;9.08;100.00;100559.84;6127879;23;70087;-89
2023/11/28 09:35:49;;;;;;;;;0.00;0.00;;;;;9.09;100.00;100546.00;6160632;22;46270;-88
2023/11/28 09:39:16;;;;;;;;;0.00;0.00;;;;;9.15;100.00;100552.78;6336596;22;45285;-89
2023/11/28 09:45:46;;;;;;;;;0.00;0.00;;;;;9.48;100.00;100574.41;6180073;23;45521;-90
2023/11/28 09:48:53;;;;;;;;;0.00;0.00;;;;;9.64;100.00;100580.06;6158757;23;46419;-90
2023/11/28 09:51:41;;;;;;;;;0.00;0.00;;;;;9.60;100.00;100566.28;6180844;23;45787;-90
2023/11/28 09:57:32;;;;;;;;;0.00;0.00;;;;;9.62;100.00;100582.69;6161536;23;45312;-89
2023/11/28 10:00:30;;;;;;;;;0.00;0.00;;;;;9.59;100.00;100590.56;6132030;23;47297;-89
2023/11/28 10:03:24;;;;;;;;;0.00;0.00;;;;;9.59;100.00;100587.97;6162312;23;45322;-91
2023/11/28 10:09:54;;;;;;;;;0.00;0.00;;;;;9.65;100.00;100600.78;6114209;23;45623;-91
2023/11/28 10:12:39;;;;;;;;;0.00;0.00;;;;;9.79;100.00;100599.56;6088945;23;48061;-89
2023/11/28 10:15:30;;;;;;;;;0.00;0.00;;;;;9.80;100.00;100607.31;6097734;23;45677;-90
2023/11/28 10:17:57;;;;;;;;;0.00;0.00;;;;;9.87;100.00;100608.84;6095475;23;45393;-87
2023/11/28 10:20:27;;;;;;;;;0.00;0.00;;;;;9.89;100.00;100612.25;6130901;23;45340;-88
2023/11/28 10:23:06;;;;;;;;;0.00;0.00;;;;;10.01;100.00;100616.28;6197082;22;45548;-90
2023/11/28 10:25:31;;;;;;;;;0.00;0.00;;;;;10.03;100.00;100619.69;6197312;22;45546;-89
2023/11/28 10:28:01;;;;;;;;;0.00;0.00;;;;;10.16;100.00;100612.38;6218975;22;45412;-89
2023/11/28 10:30:27;;;;;;;;;0.00;0.00;;;;;10.04;100.00;100617.91;6211840;22;45612;-84
2023/11/28 10:32:57;;;;;;;;;0.00;0.00;;;;;10.17;100.00;100636.63;6239312;22;45341;-84
2023/11/28 10:35:23;;;;;;;;;0.00;0.00;;;;;10.09;100.00;100623.84;6212393;22;45503;-88
2023/11/28 10:37:48;;;;;;;;;0.00;0.00;;;;;10.10;100.00;100628.13;6215264;22;45275;-88
2023/11/28 10:40:14;;;;;;;;;0.00;0.00;;;;;10.14;100.00;100615.91;6214690;22;58301;-88
2023/11/28 10:42:41;;;;;;;;;0.00;0.00;;;;;10.27;100.00;100628.50;6214842;22;45653;-88
2023/11/28 10:45:07;;;;;;;;;0.00;0.00;;;;;10.42;100.00;100642.84;6226313;22;46290;-89
2023/11/28 10:47:33;;;;;;;;;0.00;0.00;;;;;10.34;100.00;100629.19;6309754;22;45361;-88
2023/11/28 10:49:59;;;;;;;;;0.00;0.00;;;;;10.46;100.00;100633.22;6334460;22;45364;-86
2023/11/28 10:52:26;;;;;;;;;0.00;0.00;;;;;11.38;100.00;100645.03;6334061;22;46173;-87
2023/11/28 10:54:55;;;;;;;;;0.00;0.00;;;;;11.93;100.00;100639.69;6335408;22;45355;-85
2023/11/28 10:57:26;;;;;;;;;0.00;0.00;;;;;12.41;100.00;100641.41;6336163;22;45231;-86
2023/11/28 10:59:52;;;;;;;;;0.00;0.00;;;;;12.52;100.00;100641.00;6334679;22;45444;-87
2023/11/28 11:02:18;;;;;;;;;0.00;0.00;;;;;12.39;100.00;100640.59;6335167;22;46396;-86
2023/11/28 11:04:45;;;;;;;;;0.25;0.25;;;;;12.23;100.00;100635.09;6334279;22;45218;-87
2023/11/28 11:07:11;;;;;;;;;0.00;0.00;;;;;11.93;100.00;100637.09;6335173;22;45298;-88
2023/11/28 11:09:36;;;;;;;;;0.00;0.00;;;;;11.61;100.00;100636.44;6334663;22;62617;-86
2023/11/28 11:12:10;;;;;;;;;0.00;0.00;;;;;11.32;100.00;100630.47;6333792;22;51102;-86
2023/11/28 11:14:51;;;;;;;;;0.00;0.00;;;;;11.24;100.00;100640.28;6333905;22;72754;-88
2023/11/28 11:17:40;;;;;;;;;0.00;0.00;;;;;11.08;100.00;100634.72;6334900;22;45438;-87
2023/11/28 11:20:08;;;;;;;;;0.00;0.00;;;;;11.01;100.00;100635.81;6337282;22;45271;-84
2023/11/28 11:22:39;;;;;;;;;0.00;0.00;;;;;11.02;100.00;100640.16;6336183;22;46024;-83
2023/11/28 11:25:06;;;;;;;;;0.00;0.00;;;;;11.04;100.00;100633.13;6333924;22;45320;-86
2023/11/28 11:27:32;;;;;;;;;0.00;0.00;;;;;11.24;100.00;100635.94;6335757;22;45407;-81
2023/11/28 11:30:03;;;;;;;;;0.00;0.00;;;;;11.50;100.00;100642.03;6334909;22;45698;-83
2023/11/28 11:32:29;;;;;;;;;0.00;0.00;;;;;11.59;100.00;100643.47;6336067;22;47038;-87
2023/11/28 11:34:56;;;;;;;;;0.00;0.00;;;;;11.68;100.00;100634.47;6304213;22;54368;-87
2023/11/28 11:37:30;;;;;;;;;0.00;0.00;;;;;11.77;100.00;100631.53;6308825;22;45265;-85
2023/11/28 11:40:01;;;;;;;;;0.00;0.00;;;;;11.96;100.00;100645.66;6307805;22;45454;-88
2023/11/28 11:42:40;;;;;;;;;0.00;0.00;;;;;12.23;100.00;100642.09;6335749;22;45343;-91
2023/11/28 11:45:10;;;;;;;;;0.00;0.00;;;;;12.48;100.00;100639.38;6332003;22;45138;-93
2023/11/28 11:47:37;;;;;;;;;1.00;1.00;;;;;13.81;100.00;100640.09;6303376;22;45430;-87
2023/11/28 11:50:32;;;;;;;;;0.00;0.00;;;;;15.15;100.00;100658.31;6277578;22;61481;-89
2023/11/28 11:53:24;;;;;;;;;0.00;0.00;;;;;15.21;100.00;100654.53;6290314;22;46174;-89
2023/11/28 11:55:52;;;;;;;;;0.00;0.00;;;;;14.78;100.00;100646.16;6303622;22;45399;-89
2023/11/28 11:58:17;;;;;;;;;0.00;0.00;;;;;14.27;100.00;100651.09;6304031;22;45227;-88
2023/11/28 12:00:43;;;;;;;;;0.00;0.00;;;;;13.81;100.00;100655.78;6302460;22;45396;-89
2023/11/28 12:03:08;;;;;;;;;0.00;0.00;;;;;13.53;100.00;100664.81;6276232;22;50137;-85
2023/11/28 12:05:35;;;;;;;;;0.00;0.00;;;;;13.85;100.00;100658.19;6303126;22;45326;-86
2023/11/28 12:08:01;;;;;;;;;0.00;0.00;;;;;15.60;100.00;100661.31;6303804;22;45226;-87
2023/11/28 12:10:26;;;;;;;;;0.00;0.00;;;;;17.64;100.00;100672.06;6303109;22;45300;-85
2023/11/28 12:12:51;;;;;;;;;0.00;0.00;;;;;19.44;100.00;100663.41;6302755;22;69699;-84